createdAt,value
2019-05-18T00:01:44.590Z,7.54
2019-05-18T00:04:14.300Z,7.44
2019-05-18T00:06:46.415Z,7.40
2019-05-18T00:09:16.089Z,7.41
2019-05-18T00:11:45.854Z,7.38
2019-05-18T00:14:15.568Z,7.32
2019-05-18T00:16:46.144Z,7.28
2019-05-18T00:19:16.079Z,7.18
2019-05-18T00:21:46.718Z,7.14
2019-05-18T00:24:16.450Z,7.07
2019-05-18T00:26:46.210Z,7.03
2019-05-18T00:29:15.967Z,6.97
2019-05-18T00:31:46.311Z,6.95
2019-05-18T00:34:16.073Z,6.89
2019-05-18T00:36:45.926Z,6.82
2019-05-18T00:39:16.135Z,6.78
2019-05-18T00:41:45.897Z,6.65
2019-05-18T00:44:18.801Z,6.58
2019-05-18T00:46:48.539Z,6.55
2019-05-18T00:49:18.318Z,6.47
2019-05-18T00:51:48.089Z,6.37
2019-05-18T00:54:20.219Z,6.27
2019-05-18T00:56:51.694Z,6.23
2019-05-18T00:59:23.852Z,6.17
2019-05-18T01:01:53.520Z,6.04
2019-05-18T01:04:23.320Z,5.98
2019-05-18T01:06:53.090Z,5.92
2019-05-18T01:09:22.841Z,5.88
2019-05-18T01:11:52.639Z,5.84
2019-05-18T01:14:22.423Z,5.89
2019-05-18T01:16:53.102Z,6.00
2019-05-18T01:19:22.830Z,6.09
2019-05-18T01:21:52.744Z,6.15
2019-05-18T01:24:22.448Z,6.20
2019-05-18T01:26:52.198Z,6.20
2019-05-18T01:29:23.739Z,6.16
2019-05-18T01:31:53.497Z,6.17
2019-05-18T01:34:23.233Z,6.18
2019-05-18T01:36:53.010Z,6.17
2019-05-18T01:39:22.784Z,6.11
2019-05-18T01:41:52.520Z,6.09
2019-05-18T01:44:22.289Z,5.91
2019-05-18T01:46:52.096Z,5.84
2019-05-18T01:49:21.831Z,5.81
2019-05-18T01:51:51.606Z,5.72
2019-05-18T01:54:21.345Z,5.63
2019-05-18T01:56:51.081Z,5.60
2019-05-18T01:59:20.919Z,5.56
2019-05-18T02:01:50.677Z,5.49
2019-05-18T02:04:20.741Z,5.45
2019-05-18T02:06:50.527Z,5.40
2019-05-18T02:09:20.333Z,5.36
2019-05-18T02:11:51.001Z,5.37
2019-05-18T02:14:20.845Z,5.40
2019-05-18T02:16:50.714Z,5.30
2019-05-18T02:19:20.469Z,5.26
2019-05-18T02:21:50.396Z,5.25
2019-05-18T02:24:20.098Z,5.27
2019-05-18T02:26:49.838Z,5.24
2019-05-18T02:29:19.688Z,5.14
2019-05-18T02:31:49.453Z,5.07
2019-05-18T02:34:19.188Z,5.00
2019-05-18T02:36:49.036Z,4.94
2019-05-18T02:39:19.242Z,4.90
2019-05-18T02:41:49.006Z,4.83
2019-05-18T02:44:22.028Z,4.75
2019-05-18T02:46:52.230Z,4.69
2019-05-18T02:49:21.985Z,4.57
2019-05-18T02:51:51.800Z,4.53
2019-05-18T02:54:21.651Z,4.47
2019-05-18T02:56:51.387Z,4.47
2019-05-18T02:59:23.625Z,4.53
2019-05-18T03:01:55.912Z,4.62
2019-05-18T03:04:27.330Z,4.65
2019-05-18T03:06:57.116Z,4.61
2019-05-18T03:09:26.843Z,4.56
2019-05-18T03:11:56.687Z,4.58
2019-05-18T03:14:28.799Z,4.54
2019-05-18T03:16:58.530Z,4.49
2019-05-18T03:19:28.281Z,4.36
2019-05-18T03:22:01.362Z,4.28
2019-05-18T03:24:34.309Z,4.26
2019-05-18T03:27:04.054Z,4.27
2019-05-18T03:29:33.872Z,4.25
2019-05-18T03:32:03.799Z,4.27
2019-05-18T03:34:33.576Z,4.31
2019-05-18T03:37:03.374Z,4.36
2019-05-18T03:39:33.194Z,4.38
2019-05-18T03:42:03.029Z,4.43
2019-05-18T03:44:33.623Z,4.52
2019-05-18T03:47:05.170Z,4.64
2019-05-18T03:49:37.496Z,4.78
2019-05-18T03:52:09.569Z,4.91
2019-05-18T03:54:41.175Z,5.00
2019-05-18T03:57:13.013Z,5.16
2019-05-18T03:59:45.525Z,5.19
2019-05-18T04:02:15.380Z,5.22
2019-05-18T04:04:45.925Z,5.33
2019-05-18T04:07:16.176Z,5.41
2019-05-18T04:09:47.573Z,5.59
2019-05-18T04:12:17.327Z,5.98
2019-05-18T04:14:47.049Z,6.07
2019-05-18T04:17:20.977Z,6.10
2019-05-18T04:19:50.779Z,6.11
2019-05-18T04:22:20.573Z,6.24
2019-05-18T04:24:50.326Z,6.70
2019-05-18T04:27:23.885Z,7.85
2019-05-18T04:29:55.242Z,8.92
2019-05-18T04:32:27.342Z,9.88
2019-05-18T04:34:57.385Z,10.67
2019-05-18T04:37:27.188Z,11.41
2019-05-18T04:39:56.944Z,11.94
2019-05-18T04:42:26.925Z,11.75
2019-05-18T04:44:57.001Z,11.37
2019-05-18T04:47:26.749Z,11.17
2019-05-18T04:50:05.239Z,10.96
2019-05-18T04:52:28.034Z,11.14
2019-05-18T04:54:57.809Z,11.04
2019-05-18T04:57:27.665Z,11.06
2019-05-18T04:59:57.494Z,10.89
2019-05-18T05:02:27.330Z,10.88
2019-05-18T05:04:57.144Z,10.92
2019-05-18T05:07:26.928Z,11.10
2019-05-18T05:09:56.868Z,11.22
2019-05-18T05:12:26.903Z,11.22
2019-05-18T05:14:56.704Z,11.23
2019-05-18T05:17:26.456Z,11.33
2019-05-18T05:19:56.260Z,11.20
2019-05-18T05:22:26.090Z,11.05
2019-05-18T05:24:58.418Z,11.10
2019-05-18T05:27:28.281Z,11.16
2019-05-18T05:29:58.184Z,11.00
2019-05-18T05:32:28.176Z,10.94
2019-05-18T05:34:58.935Z,11.00
2019-05-18T05:37:28.745Z,10.98
2019-05-18T05:39:58.559Z,11.07
2019-05-18T05:42:28.363Z,11.19
2019-05-18T05:44:58.191Z,11.07
2019-05-18T05:47:27.949Z,11.40
2019-05-18T05:49:57.816Z,11.76
2019-05-18T05:52:27.662Z,11.76
2019-05-18T05:54:57.886Z,11.56
2019-05-18T05:57:28.083Z,11.52
2019-05-18T06:00:00.943Z,11.56
2019-05-18T06:02:31.488Z,11.71
2019-05-18T06:05:01.144Z,11.71
2019-05-18T06:07:30.941Z,11.68
2019-05-18T06:10:01.124Z,11.60
2019-05-18T06:12:31.020Z,11.83
2019-05-18T06:15:00.803Z,11.27
2019-05-18T06:17:30.610Z,11.33
2019-05-18T06:20:00.381Z,11.03
2019-05-18T06:22:30.182Z,11.10
2019-05-18T06:24:59.932Z,11.00
2019-05-18T06:27:29.810Z,11.05
2019-05-18T06:29:59.634Z,10.91
2019-05-18T06:32:29.384Z,10.94
2019-05-18T06:34:59.161Z,11.02
2019-05-18T06:37:28.956Z,11.10
2019-05-18T06:39:58.846Z,10.89
2019-05-18T06:42:28.656Z,10.71
2019-05-18T06:44:59.371Z,10.69
2019-05-18T06:47:29.129Z,10.53
2019-05-18T06:49:58.887Z,10.72
2019-05-18T06:52:31.763Z,10.71
2019-05-18T06:55:02.191Z,10.89
2019-05-18T06:57:32.285Z,10.89
2019-05-18T07:00:04.175Z,10.68
2019-05-18T07:02:34.973Z,10.52
2019-05-18T07:05:06.041Z,10.50
2019-05-18T07:07:35.878Z,10.45
2019-05-18T07:10:07.049Z,10.53
2019-05-18T07:12:36.883Z,10.75
2019-05-18T07:15:08.382Z,10.78
2019-05-18T07:17:38.996Z,10.67
2019-05-18T07:20:11.814Z,10.84
2019-05-18T07:22:42.018Z,10.93
2019-05-18T07:25:12.608Z,11.08
2019-05-18T07:27:44.160Z,11.16
2019-05-18T07:30:15.697Z,11.34
2019-05-18T07:32:45.642Z,11.56
2019-05-18T07:35:15.843Z,11.50
2019-05-18T07:37:45.566Z,11.53
2019-05-18T07:40:15.326Z,11.59
2019-05-18T07:42:45.367Z,11.58
2019-05-18T07:45:15.374Z,11.73
2019-05-18T07:47:45.144Z,11.83
2019-05-18T07:50:15.067Z,11.79
2019-05-18T07:52:44.817Z,12.07
2019-05-18T07:55:15.025Z,12.06
2019-05-18T07:57:44.895Z,12.06
2019-05-18T08:00:15.345Z,12.08
2019-05-18T08:02:46.084Z,12.16
2019-05-18T08:05:16.725Z,12.16
2019-05-18T08:07:46.645Z,12.17
2019-05-18T08:10:19.507Z,12.14
2019-05-18T08:12:49.264Z,12.12
2019-05-18T08:15:20.245Z,12.04
2019-05-18T08:17:50.957Z,11.89
2019-05-18T08:20:20.888Z,11.75
2019-05-18T08:22:52.077Z,11.99
2019-05-18T08:25:21.936Z,11.79
2019-05-18T08:27:51.809Z,11.66
2019-05-18T08:30:21.460Z,11.73
2019-05-18T08:32:51.298Z,11.69
2019-05-18T08:35:20.937Z,11.79
2019-05-18T08:37:50.624Z,11.79
2019-05-18T08:40:21.393Z,12.04
2019-05-18T08:42:54.294Z,11.83
2019-05-18T08:45:24.062Z,11.84
2019-05-18T08:47:53.876Z,11.65
2019-05-18T08:50:23.533Z,11.51
2019-05-18T08:52:53.316Z,11.62
2019-05-18T08:55:23.083Z,11.57
2019-05-18T08:57:52.724Z,11.37
2019-05-18T09:00:23.131Z,11.38
2019-05-18T09:02:52.961Z,11.41
2019-05-18T09:05:22.787Z,11.45
2019-05-18T09:07:52.493Z,11.52
2019-05-18T09:10:22.353Z,11.49
2019-05-18T09:12:52.066Z,11.49
2019-05-18T09:15:21.875Z,11.50
2019-05-18T09:17:51.662Z,11.52
2019-05-18T09:20:21.399Z,11.69
2019-05-18T09:22:51.172Z,11.97
2019-05-18T09:25:20.971Z,11.92
2019-05-18T09:27:50.855Z,11.93
2019-05-18T09:30:23.070Z,12.12
2019-05-18T09:32:52.850Z,12.03
2019-05-18T09:35:22.648Z,12.05
2019-05-18T09:37:52.422Z,12.17
2019-05-18T09:40:22.284Z,12.33
2019-05-18T09:42:52.083Z,12.42
2019-05-18T09:45:24.654Z,12.43
2019-05-18T09:47:54.462Z,12.26
2019-05-18T09:50:24.281Z,12.22
2019-05-18T09:52:53.959Z,12.22
2019-05-18T09:55:23.728Z,12.12
2019-05-18T09:57:53.496Z,12.04
2019-05-18T10:00:23.544Z,11.98
2019-05-18T10:02:54.764Z,11.99
2019-05-18T10:05:24.507Z,12.03
2019-05-18T10:07:54.282Z,12.14
2019-05-18T10:10:24.052Z,12.17
2019-05-18T10:12:53.807Z,12.07
2019-05-18T10:15:24.430Z,11.64
2019-05-18T10:17:58.405Z,11.81
2019-05-18T10:20:28.140Z,11.87
2019-05-18T10:23:12.419Z,11.87
2019-05-18T10:25:32.782Z,11.95
2019-05-18T10:28:06.815Z,12.18
2019-05-18T10:30:38.129Z,12.20
2019-05-18T10:33:09.909Z,12.27
2019-05-18T10:35:40.775Z,12.32
2019-05-18T10:38:12.990Z,12.46
2019-05-18T10:40:42.870Z,12.51
2019-05-18T10:43:12.650Z,12.70
2019-05-18T10:45:45.215Z,12.73
2019-05-18T10:48:15.477Z,12.89
2019-05-18T10:50:45.362Z,13.03
2019-05-18T10:53:27.871Z,13.15
2019-05-18T10:55:47.530Z,13.39
2019-05-18T10:58:17.330Z,13.44
2019-05-18T11:00:48.603Z,13.31
2019-05-18T11:03:18.394Z,13.22
2019-05-18T11:05:48.186Z,13.14
2019-05-18T11:08:17.965Z,13.36
2019-05-18T11:10:47.749Z,13.51
2019-05-18T11:13:17.561Z,13.76
2019-05-18T11:15:47.433Z,13.40
2019-05-18T11:18:17.236Z,13.11
2019-05-18T11:20:47.067Z,13.01
2019-05-18T11:23:16.893Z,11.46
2019-05-18T11:25:46.712Z,12.90
2019-05-18T11:28:16.505Z,12.97
2019-05-18T11:30:46.305Z,13.05
2019-05-18T11:33:16.074Z,13.35
2019-05-18T11:35:45.928Z,13.60
2019-05-18T11:38:15.770Z,13.96
2019-05-18T11:40:45.531Z,14.34
2019-05-18T11:43:15.393Z,14.53
2019-05-18T11:45:45.196Z,14.67
2019-05-18T11:48:14.991Z,14.93
2019-05-18T11:50:44.928Z,15.17
2019-05-18T11:53:14.739Z,15.35
2019-05-18T11:55:44.505Z,15.17
2019-05-18T11:58:14.409Z,15.05
2019-05-18T12:00:44.186Z,14.92
2019-05-18T12:03:13.988Z,15.07
2019-05-18T12:05:43.949Z,14.88
2019-05-18T12:08:13.737Z,14.77
2019-05-18T12:10:43.486Z,14.68
2019-05-18T12:13:13.376Z,14.81
2019-05-18T12:15:43.143Z,14.81
2019-05-18T12:18:12.926Z,15.01
2019-05-18T12:20:43.243Z,15.31
2019-05-18T12:23:13.054Z,15.43
2019-05-18T12:25:42.942Z,15.55
2019-05-18T12:28:13.042Z,15.53
2019-05-18T12:30:42.883Z,15.35
2019-05-18T12:33:12.675Z,15.47
2019-05-18T12:35:42.577Z,15.25
2019-05-18T12:38:12.393Z,15.30
2019-05-18T12:40:42.218Z,15.47
2019-05-18T12:43:14.778Z,15.63
2019-05-18T12:45:44.560Z,15.62
2019-05-18T12:48:15.240Z,15.68
2019-05-18T12:50:44.975Z,15.93
2019-05-18T12:53:17.539Z,16.13
2019-05-18T12:55:46.257Z,16.24
2019-05-18T12:58:16.094Z,16.12
2019-05-18T13:00:45.888Z,16.38
2019-05-18T13:03:15.663Z,16.37
2019-05-18T13:05:45.490Z,16.41
2019-05-18T13:08:15.275Z,16.22
2019-05-18T13:10:45.069Z,15.89
2019-05-18T13:13:14.889Z,15.89
2019-05-18T13:15:44.715Z,15.25
2019-05-18T13:18:14.503Z,15.15
2019-05-18T13:20:44.297Z,14.93
2019-05-18T13:23:14.091Z,14.93
2019-05-18T13:25:43.755Z,15.03
2019-05-18T13:28:13.576Z,15.30
2019-05-18T13:30:43.390Z,15.33
2019-05-18T13:33:13.198Z,15.29
2019-05-18T13:35:45.501Z,15.19
2019-05-18T13:38:14.595Z,15.17
2019-05-18T13:40:44.382Z,15.16
2019-05-18T13:43:14.271Z,15.15
2019-05-18T13:45:44.109Z,15.11
2019-05-18T13:48:13.938Z,15.11
2019-05-18T13:50:44.822Z,15.26
2019-05-18T13:53:14.877Z,15.43
2019-05-18T13:55:44.624Z,15.46
2019-05-18T13:58:14.472Z,15.48
2019-05-18T14:00:44.270Z,15.62
2019-05-18T14:03:14.128Z,15.70
2019-05-18T14:05:44.000Z,15.82
2019-05-18T14:08:15.635Z,16.03
2019-05-18T14:10:47.329Z,15.96
2019-05-18T14:13:17.174Z,15.79
2019-05-18T14:15:46.942Z,15.59
2019-05-18T14:18:16.723Z,15.52
2019-05-18T14:20:46.579Z,15.40
2019-05-18T14:23:16.558Z,15.17
2019-05-18T14:25:47.879Z,15.22
2019-05-18T14:28:17.677Z,14.99
2019-05-18T14:30:47.845Z,14.80
2019-05-18T14:33:17.633Z,14.71
2019-05-18T14:35:47.473Z,14.54
2019-05-18T14:38:17.384Z,14.37
2019-05-18T14:40:47.252Z,14.16
2019-05-18T14:43:18.403Z,14.04
2019-05-18T14:45:49.321Z,13.97
2019-05-18T14:48:19.486Z,13.95
2019-05-18T14:50:49.762Z,14.05
2019-05-18T14:53:20.571Z,14.04
2019-05-18T14:55:50.452Z,14.09
2019-05-18T14:58:20.575Z,14.13
2019-05-18T15:00:50.393Z,14.44
2019-05-18T15:03:20.189Z,14.61
2019-05-18T15:05:50.055Z,14.48
2019-05-18T15:08:19.850Z,14.51
2019-05-18T15:10:49.908Z,14.51
2019-05-18T15:13:19.722Z,14.57
2019-05-18T15:15:49.525Z,14.64
2019-05-18T15:18:19.447Z,14.64
2019-05-18T15:20:49.271Z,14.50
2019-05-18T15:23:19.147Z,14.46
2019-05-18T15:25:51.163Z,14.44
2019-05-18T15:28:21.523Z,14.22
2019-05-18T15:30:52.340Z,14.13
2019-05-18T15:33:22.143Z,14.08
2019-05-18T15:35:52.331Z,14.26
2019-05-18T15:38:22.100Z,14.09
2019-05-18T15:40:51.907Z,14.00
2019-05-18T15:43:21.796Z,14.07
2019-05-18T15:45:51.593Z,14.02
2019-05-18T15:48:21.450Z,14.42
2019-05-18T15:50:51.403Z,14.20
2019-05-18T15:53:21.234Z,14.03
2019-05-18T15:56:04.830Z,13.93
2019-05-18T15:58:22.618Z,13.87
2019-05-18T16:00:52.518Z,13.80
2019-05-18T16:03:22.274Z,13.71
2019-05-18T16:05:52.153Z,13.62
2019-05-18T16:08:21.926Z,13.55
2019-05-18T16:10:51.738Z,13.49
2019-05-18T16:13:21.541Z,13.45
2019-05-18T16:15:51.335Z,13.62
2019-05-18T16:18:21.233Z,13.54
2019-05-18T16:20:51.087Z,13.51
2019-05-18T16:23:20.869Z,13.72
2019-05-18T16:25:50.728Z,13.73
2019-05-18T16:28:20.550Z,13.79
2019-05-18T16:30:50.392Z,13.80
2019-05-18T16:33:20.195Z,13.86
2019-05-18T16:35:50.045Z,13.92
2019-05-18T16:38:19.932Z,13.95
2019-05-18T16:40:49.745Z,13.96
2019-05-18T16:43:19.654Z,13.99
2019-05-18T16:45:49.444Z,14.02
2019-05-18T16:48:19.215Z,14.03
2019-05-18T16:50:49.072Z,14.05
2019-05-18T16:53:18.906Z,14.05
2019-05-18T16:55:48.707Z,14.03
2019-05-18T16:58:18.627Z,14.00
2019-05-18T17:00:48.684Z,13.95
2019-05-18T17:03:19.027Z,13.91
2019-05-18T17:05:48.858Z,13.85
2019-05-18T17:08:18.673Z,13.76
2019-05-18T17:10:48.502Z,13.71
2019-05-18T17:13:18.399Z,13.64
2019-05-18T17:15:48.223Z,13.60
2019-05-18T17:18:18.047Z,13.54
2019-05-18T17:20:47.829Z,13.50
2019-05-18T17:23:17.616Z,13.48
2019-05-18T17:25:47.304Z,13.43
2019-05-18T17:28:20.227Z,13.39
2019-05-18T17:30:50.032Z,13.33
2019-05-18T17:33:19.833Z,13.26
2019-05-18T17:35:59.745Z,13.21
2019-05-18T17:38:21.204Z,13.16
2019-05-18T17:40:50.985Z,13.11
2019-05-18T17:43:22.950Z,13.09
2019-05-18T17:45:52.806Z,13.09
2019-05-18T17:48:22.929Z,13.09
2019-05-18T17:50:52.815Z,13.12
2019-05-18T17:53:22.658Z,13.11
2019-05-18T17:55:52.472Z,13.12
2019-05-18T17:58:22.333Z,13.11
2019-05-18T18:00:54.546Z,13.11
2019-05-18T18:03:24.527Z,13.11
2019-05-18T18:05:54.378Z,13.11
2019-05-18T18:08:24.183Z,13.11
2019-05-18T18:10:55.484Z,13.19
2019-05-18T18:13:25.322Z,12.85
2019-05-18T18:15:55.163Z,13.17
2019-05-18T18:18:24.981Z,13.13
2019-05-18T18:20:54.682Z,13.11
2019-05-18T18:23:24.512Z,13.04
2019-05-18T18:25:54.414Z,12.98
2019-05-18T18:28:24.963Z,12.93
2019-05-18T18:30:55.272Z,12.88
2019-05-18T18:33:25.085Z,12.82
2019-05-18T18:35:54.938Z,12.77
2019-05-18T18:38:24.740Z,12.73
2019-05-18T18:40:54.565Z,12.70
2019-05-18T18:43:24.511Z,12.65
2019-05-18T18:45:54.318Z,12.64
2019-05-18T18:48:26.408Z,12.63
2019-05-18T18:50:55.689Z,12.58
2019-05-18T18:53:25.555Z,12.53
2019-05-18T18:55:55.600Z,12.48
2019-05-18T18:58:27.349Z,12.44
2019-05-18T19:00:57.577Z,12.39
2019-05-18T19:03:27.708Z,12.34
2019-05-18T19:05:58.750Z,12.31
2019-05-18T19:08:37.263Z,12.26
2019-05-18T19:11:08.401Z,12.21
2019-05-18T19:13:38.662Z,12.17
2019-05-18T19:16:08.509Z,12.14
2019-05-18T19:18:39.326Z,12.09
2019-05-18T19:21:10.247Z,12.06
2019-05-18T19:23:40.450Z,12.02
2019-05-18T19:26:11.389Z,11.97
2019-05-18T19:28:42.289Z,11.92
2019-05-18T19:31:12.235Z,11.88
2019-05-18T19:33:42.154Z,11.81
2019-05-18T19:36:12.024Z,11.76
2019-05-18T19:38:43.022Z,11.72
2019-05-18T19:41:15.932Z,11.68
2019-05-18T19:43:46.155Z,11.61
2019-05-18T19:46:15.929Z,11.56
2019-05-18T19:48:48.044Z,11.49
2019-05-18T19:51:17.877Z,11.43
2019-05-18T19:53:51.928Z,11.40
2019-05-18T19:56:22.809Z,11.36
2019-05-18T19:58:53.088Z,11.32
2019-05-18T20:01:22.989Z,11.24
2019-05-18T20:03:54.087Z,11.19
2019-05-18T20:06:24.370Z,11.09
2019-05-18T20:08:54.134Z,11.02
2019-05-18T20:11:24.151Z,10.94
2019-05-18T20:13:57.263Z,10.90
2019-05-18T20:16:28.387Z,10.85
2019-05-18T20:18:58.206Z,10.78
2019-05-18T20:21:38.887Z,10.72
2019-05-18T20:24:09.958Z,10.64
2019-05-18T20:26:44.377Z,10.56
2019-05-18T20:29:14.272Z,10.49
2019-05-18T20:31:44.184Z,10.38
2019-05-18T20:34:16.785Z,10.35
2019-05-18T20:36:48.708Z,10.32
2019-05-18T20:39:19.626Z,10.28
2019-05-18T20:41:50.540Z,10.27
2019-05-18T20:44:20.838Z,10.25
2019-05-18T20:46:51.175Z,10.21
2019-05-18T20:49:20.885Z,10.21
2019-05-18T20:51:50.719Z,10.18
2019-05-18T20:54:20.558Z,10.12
2019-05-18T20:56:54.818Z,10.10
2019-05-18T20:59:28.567Z,10.07
2019-05-18T21:01:58.464Z,10.02
2019-05-18T21:04:28.282Z,9.93
2019-05-18T21:06:58.245Z,9.93
2019-05-18T21:09:29.205Z,9.91
2019-05-18T21:11:59.087Z,9.91
2019-05-18T21:14:29.905Z,9.91
2019-05-18T21:16:59.699Z,9.90
2019-05-18T21:19:29.552Z,9.84
2019-05-18T21:21:59.823Z,9.81
2019-05-18T21:24:32.013Z,9.82
2019-05-18T21:27:02.140Z,9.76
2019-05-18T21:29:31.968Z,9.70
2019-05-18T21:32:01.856Z,9.75
2019-05-18T21:34:31.630Z,9.73
2019-05-18T21:37:01.416Z,9.75
2019-05-18T21:39:31.200Z,9.72
2019-05-18T21:42:00.991Z,9.67
2019-05-18T21:44:30.813Z,9.64
2019-05-18T21:47:00.625Z,9.57
2019-05-18T21:49:30.468Z,9.51
2019-05-18T21:52:00.309Z,9.45
2019-05-18T21:54:30.123Z,9.38
2019-05-18T21:57:00.840Z,9.32
2019-05-18T21:59:30.691Z,9.35
2019-05-18T22:02:00.494Z,9.39
2019-05-18T22:04:30.329Z,9.48
2019-05-18T22:07:00.312Z,9.42
2019-05-18T22:09:30.189Z,9.41
2019-05-18T22:12:02.020Z,9.31
2019-05-18T22:14:31.881Z,9.21
2019-05-18T22:17:01.675Z,9.12
2019-05-18T22:19:34.160Z,9.03
2019-05-18T22:22:03.992Z,9.02
2019-05-18T22:24:34.159Z,8.97
2019-05-18T22:27:03.930Z,8.93
2019-05-18T22:29:33.748Z,8.88
2019-05-18T22:32:03.549Z,8.84
2019-05-18T22:34:33.333Z,8.80
2019-05-18T22:37:03.150Z,8.79
2019-05-18T22:39:32.940Z,8.77
2019-05-18T22:42:02.824Z,8.72
2019-05-18T22:44:32.644Z,8.75
2019-05-18T22:47:02.449Z,8.77
2019-05-18T22:49:32.218Z,8.72
2019-05-18T22:52:02.024Z,8.66
2019-05-18T22:54:31.835Z,8.59
2019-05-18T22:57:01.712Z,8.56
2019-05-18T22:59:31.529Z,8.49
2019-05-18T23:02:01.337Z,8.48
2019-05-18T23:04:31.164Z,8.45
2019-05-18T23:07:01.053Z,8.41
2019-05-18T23:09:30.827Z,8.37
2019-05-18T23:12:00.621Z,8.35
2019-05-18T23:14:30.488Z,8.33
2019-05-18T23:17:00.305Z,8.28
2019-05-18T23:19:30.105Z,8.23
2019-05-18T23:21:59.926Z,8.23
2019-05-18T23:24:29.684Z,8.23
2019-05-18T23:26:59.489Z,8.24
2019-05-18T23:29:29.304Z,8.24
2019-05-18T23:31:59.088Z,8.23
2019-05-18T23:34:28.865Z,8.26
2019-05-18T23:36:58.672Z,8.30
2019-05-18T23:39:28.444Z,8.25
2019-05-18T23:41:58.233Z,8.18
2019-05-18T23:44:28.063Z,8.21
2019-05-18T23:46:57.829Z,8.17
2019-05-18T23:49:27.680Z,8.06
2019-05-18T23:51:57.895Z,8.03
2019-05-18T23:54:27.682Z,7.94
2019-05-18T23:56:57.465Z,7.87
2019-05-18T23:59:27.283Z,7.82
